Time;durP1;ratioP1;P1;durP2;ratioP2;P2;SDS_P1;SDS_P2;PMS_P1;PMS_P2;Temp;Humidity;BMP_temperature;BMP_pressure;BME280_temperature;BME280_humidity;BME280_pressure;Samples;Min_cycle;Max_cycle;Signal;HPM_P1;HPM_P2
2023/05/12 00:01:19;;;;;;;0.30;0.30;;;;;;;13.23;45.41;101320.09;5004724;28;20076;-66
2023/05/12 00:03:45;;;;;;;4.00;3.83;;;;;;;13.19;45.30;101314.91;5004946;28;20077;-68
2023/05/12 00:06:11;;;;;;;0.40;0.40;;;;;;;13.22;45.20;101322.69;5004706;28;20046;-67
2023/05/12 00:08:36;;;;;;;0.30;0.30;;;;;;;13.08;45.30;101315.78;5004831;28;20046;-66
2023/05/12 00:11:02;;;;;;;0.30;0.30;;;;;;;12.94;45.46;101312.41;5004391;28;20022;-67
2023/05/12 00:13:28;;;;;;;0.30;0.30;;;;;;;12.89;45.48;101315.88;5004693;28;20022;-67
2023/05/12 00:15:55;;;;;;;0.30;0.30;;;;;;;12.81;45.55;101315.03;4986917;28;20019;-67
2023/05/12 00:18:21;;;;;;;0.40;0.40;;;;;;;12.86;45.03;101315.03;4987145;28;20560;-67
2023/05/12 00:20:47;;;;;;;1.27;1.20;;;;;;;12.96;44.19;101314.13;5006658;28;20026;-67
2023/05/12 00:23:12;;;;;;;0.40;0.40;;;;;;;12.83;43.85;101312.41;5008418;28;20094;-67
2023/05/12 00:25:38;;;;;;;0.40;0.40;;;;;;;12.96;43.33;101321.06;5007914;28;20443;-66
2023/05/12 00:28:04;;;;;;;0.30;0.30;;;;;;;12.91;43.05;101320.22;5008190;28;20022;-68
2023/05/12 00:30:29;;;;;;;0.30;0.30;;;;;;;12.76;43.39;101316.81;5008321;28;20048;-67
2023/05/12 00:32:54;;;;;;;0.40;0.40;;;;;;;12.70;43.13;101309.00;5008056;28;20026;-66
2023/05/12 00:35:20;;;;;;;0.40;0.40;;;;;;;12.61;43.19;101310.75;5007970;28;20026;-66
2023/05/12 00:37:45;;;;;;;0.30;0.30;;;;;;;12.77;42.74;101319.41;5007876;28;20053;-68
2023/05/12 00:40:11;;;;;;;0.40;0.40;;;;;;;12.61;43.25;101328.13;4990198;28;20031;-63
2023/05/12 00:42:36;;;;;;;0.30;0.30;;;;;;;12.73;42.70;101329.84;5007937;28;20094;-66
2023/05/12 00:45:03;;;;;;;0.73;0.73;;;;;;;12.60;43.04;101331.59;5007878;28;20014;-67
2023/05/12 00:47:29;;;;;;;0.30;0.30;;;;;;;12.50;43.29;101326.41;5007818;28;20022;-67
2023/05/12 00:49:55;;;;;;;0.30;0.30;;;;;;;12.63;42.89;101329.88;5007882;28;20036;-66
2023/05/12 00:52:20;;;;;;;0.30;0.30;;;;;;;12.64;42.94;101331.59;5006134;28;20033;-67
2023/05/12 00:54:47;;;;;;;0.40;0.40;;;;;;;12.58;42.86;101329.00;4990093;28;20032;-67
2023/05/12 00:57:13;;;;;;;2.83;2.63;;;;;;;12.52;43.11;101327.25;5007426;28;20081;-66
2023/05/12 00:59:39;;;;;;;1.35;1.35;;;;;;;12.38;43.46;101334.25;5007735;28;20026;-67
2023/05/12 01:02:06;;;;;;;0.30;0.30;;;;;;;12.42;43.45;101342.91;5007422;28;20092;-67
2023/05/12 01:04:32;;;;;;;3.15;2.85;;;;;;;12.39;43.11;101344.66;5007437;28;20025;-67
2023/05/12 01:07:11;;;;;;;0.40;0.40;;;;;;;12.26;43.57;101335.09;5007541;28;20028;-67
2023/05/12 01:09:37;;;;;;;0.30;0.30;;;;;;;12.39;42.66;101336.84;5007584;28;20022;-67
2023/05/12 01:12:03;;;;;;;0.30;0.30;;;;;;;12.21;42.99;101327.31;5007161;28;20394;-67
2023/05/12 01:14:28;;;;;;;0.30;0.30;;;;;;;12.29;42.75;101335.09;5007587;28;20022;-67
2023/05/12 01:16:58;;;;;;;0.30;0.30;;;;;;;12.18;42.96;101342.03;5007376;28;20026;-67
2023/05/12 01:19:33;;;;;;;0.30;0.30;;;;;;;12.24;42.51;101342.03;5007487;28;20026;-66
2023/05/12 01:21:59;;;;;;;0.38;0.38;;;;;;;12.18;42.38;101344.66;5007009;28;20022;-66
2023/05/12 01:24:28;;;;;;;0.30;0.30;;;;;;;12.11;42.41;101343.78;5007199;28;20101;-67
2023/05/12 01:26:53;;;;;;;0.60;0.60;;;;;;;12.14;42.04;101344.66;5007101;28;20098;-66
2023/05/12 01:29:21;;;;;;;0.30;0.30;;;;;;;12.20;41.77;101343.81;5007035;28;20344;-67
2023/05/12 01:31:47;;;;;;;2.20;2.10;;;;;;;12.20;41.33;101345.53;5006927;28;20030;-67
2023/05/12 01:34:17;;;;;;;0.73;0.70;;;;;;;12.16;41.39;101352.47;5007088;28;20487;-68
2023/05/12 01:36:42;;;;;;;0.40;0.40;;;;;;;12.24;41.04;101353.34;5007133;28;20026;-67
2023/05/12 01:39:08;;;;;;;0.30;0.30;;;;;;;12.07;41.26;101355.91;5006992;28;20022;-67
2023/05/12 01:41:33;;;;;;;0.60;0.60;;;;;;;12.18;40.99;101352.47;5006648;28;20030;-67
2023/05/12 01:43:58;;;;;;;0.45;0.45;;;;;;;12.07;41.06;101355.91;5006869;28;20034;-66
2023/05/12 01:46:24;;;;;;;0.32;0.32;;;;;;;11.98;41.40;101353.31;5006914;28;20102;-67
2023/05/12 01:48:49;;;;;;;0.40;0.40;;;;;;;12.05;41.07;101356.75;5006743;28;20081;-67
2023/05/12 01:51:15;;;;;;;0.38;0.38;;;;;;;12.05;41.06;101356.75;5006609;28;20053;-67
2023/05/12 01:53:41;;;;;;;0.30;0.30;;;;;;;12.01;41.32;101364.56;5006798;28;20034;-67
2023/05/12 01:56:06;;;;;;;0.50;0.50;;;;;;;11.96;41.40;101366.31;5006288;28;20026;-66
2023/05/12 01:58:32;;;;;;;0.30;0.30;;;;;;;11.85;41.65;101363.66;5006454;28;20038;-67
2023/05/12 02:00:57;;;;;;;0.43;0.43;;;;;;;11.81;41.75;101358.47;5006591;28;20041;-67
2023/05/12 02:03:22;;;;;;;0.73;0.73;;;;;;;11.93;41.50;101365.44;5006359;28;20109;-66
2023/05/12 02:05:48;;;;;;;1.50;1.40;;;;;;;11.82;41.78;101368.03;5006628;28;20050;-66
2023/05/12 02:08:13;;;;;;;0.60;0.60;;;;;;;11.72;41.81;101364.53;5006466;28;20022;-66
2023/05/12 02:10:38;;;;;;;0.30;0.30;;;;;;;11.66;41.92;101365.38;5006078;28;20134;-66
2023/05/12 02:13:04;;;;;;;0.57;0.57;;;;;;;11.63;42.02;101370.56;5006391;28;20022;-66
2023/05/12 02:15:29;;;;;;;0.82;0.82;;;;;;;11.55;42.25;101378.34;5006272;28;20042;-67
2023/05/12 02:17:56;;;;;;;0.40;0.40;;;;;;;11.46;42.30;101370.50;5006117;28;20029;-66
2023/05/12 02:20:21;;;;;;;0.30;0.30;;;;;;;11.47;42.49;101375.72;5006164;28;20565;-66
2023/05/12 02:22:46;;;;;;;0.40;0.40;;;;;;;11.43;42.58;101367.91;5005995;28;20034;-66
2023/05/12 02:25:12;;;;;;;4.35;1.70;;;;;;;11.43;42.54;101368.78;5005980;28;20443;-67
2023/05/12 02:27:37;;;;;;;0.40;0.40;;;;;;;11.45;42.68;101379.19;5006019;28;20033;-66
2023/05/12 02:30:03;;;;;;;0.40;0.40;;;;;;;11.33;42.62;101361.78;5006002;28;20110;-67
2023/05/12 02:32:29;;;;;;;0.30;0.30;;;;;;;11.46;42.69;101383.50;5005897;28;20038;-67
2023/05/12 02:34:55;;;;;;;0.30;0.30;;;;;;;11.40;42.95;101382.66;5005813;28;20027;-66
2023/05/12 02:37:20;;;;;;;0.30;0.30;;;;;;;11.37;42.88;101379.16;5005799;28;20022;-66
2023/05/12 02:39:46;;;;;;;0.30;0.30;;;;;;;11.37;43.01;101371.34;5005695;28;20061;-65
2023/05/12 02:42:11;;;;;;;0.40;0.40;;;;;;;11.36;42.94;101382.59;5005762;28;20021;-66
2023/05/12 02:44:36;;;;;;;0.40;0.40;;;;;;;11.32;43.11;101383.47;5005281;28;20026;-67
2023/05/12 02:47:03;;;;;;;0.30;0.30;;;;;;;11.32;43.04;101378.25;5005796;28;20576;-68
2023/05/12 02:49:28;;;;;;;0.30;0.30;;;;;;;11.25;43.04;101374.75;5005775;28;20030;-67
2023/05/12 02:51:54;;;;;;;0.50;0.50;;;;;;;11.28;43.23;101387.78;4987903;28;20059;-67
2023/05/12 02:54:20;;;;;;;0.40;0.40;;;;;;;11.26;43.23;101371.31;5005565;28;20023;-66
2023/05/12 02:56:45;;;;;;;0.40;0.40;;;;;;;11.45;42.76;101384.38;5005154;28;20105;-67
2023/05/12 02:59:11;;;;;;;1.00;1.00;;;;;;;11.37;42.80;101369.59;5005731;28;20026;-67
2023/05/12 03:01:36;;;;;;;0.30;0.30;;;;;;;11.32;42.75;101380.88;5005354;28;20082;-67
2023/05/12 03:04:02;;;;;;;0.40;0.40;;;;;;;11.43;42.42;101368.78;5005266;28;20022;-66
2023/05/12 03:06:28;;;;;;;0.40;0.40;;;;;;;11.31;42.73;101373.94;5005666;28;20279;-67
2023/05/12 03:08:54;;;;;;;0.40;0.40;;;;;;;11.36;42.65;101375.69;5005541;28;20037;-67
2023/05/12 03:11:21;;;;;;;0.40;0.40;;;;;;;11.37;42.75;101380.00;5005091;28;20022;-67
2023/05/12 03:13:46;;;;;;;0.60;0.60;;;;;;;11.29;42.85;101373.94;5005439;28;20380;-67
2023/05/12 03:16:12;;;;;;;0.65;0.65;;;;;;;11.27;42.94;101370.44;4987794;28;20026;-67
2023/05/12 03:18:37;;;;;;;5.35;3.80;;;;;;;11.30;43.04;101378.25;5005769;28;20038;-66
2023/05/12 03:21:03;;;;;;;0.50;0.50;;;;;;;11.30;43.12;101377.38;5005244;28;20204;-67
2023/05/12 03:23:28;;;;;;;0.40;0.40;;;;;;;11.40;42.95;101371.38;5005011;28;20049;-67
2023/05/12 03:25:54;;;;;;;0.40;0.40;;;;;;;11.51;43.02;101381.81;5005132;28;20025;-68
2023/05/12 03:28:21;;;;;;;0.40;0.40;;;;;;;11.54;42.94;101376.63;5005447;28;20026;-67
2023/05/12 03:30:47;;;;;;;0.35;0.35;;;;;;;11.63;42.72;101376.63;5005323;28;20054;-66
2023/05/12 03:33:12;;;;;;;0.30;0.30;;;;;;;11.84;42.52;101387.06;5005119;28;20034;-68
2023/05/12 03:35:38;;;;;;;0.30;0.30;;;;;;;11.95;42.62;101389.72;5005047;28;20026;-66
2023/05/12 03:38:04;;;;;;;2.20;1.27;;;;;;;12.14;42.42;101390.66;5005094;28;20026;-68
2023/05/12 03:40:29;;;;;;;0.85;0.85;;;;;;;12.26;41.96;101384.56;5004984;28;20026;-68
2023/05/12 03:42:55;;;;;;;0.40;0.40;;;;;;;12.46;41.19;101381.13;5005054;28;20026;-67
2023/05/12 03:45:20;;;;;;;0.30;0.30;;;;;;;12.47;41.28;101382.84;5005001;28;20022;-68
2023/05/12 03:47:46;;;;;;;0.30;0.30;;;;;;;12.66;40.84;101385.41;5004988;28;20056;-67
2023/05/12 03:50:11;;;;;;;0.30;0.30;;;;;;;12.84;40.04;101384.53;5005138;28;20049;-69
2023/05/12 03:52:39;;;;;;;0.45;0.45;;;;;;;12.84;40.26;101377.56;5004783;28;20038;-69
2023/05/12 03:55:06;;;;;;;0.40;0.40;;;;;;;12.87;40.61;101388.00;5005570;28;20018;-67
2023/05/12 03:57:33;;;;;;;3.28;3.05;;;;;;;13.02;40.25;101378.38;5008527;28;20053;-67
2023/05/12 03:59:58;;;;;;;0.30;0.30;;;;;;;13.23;40.14;101387.88;5008930;28;20035;-67
2023/05/12 04:02:24;;;;;;;0.32;0.32;;;;;;;13.46;39.32;101388.66;5008729;28;20050;-67
2023/05/12 04:04:49;;;;;;;0.30;0.30;;;;;;;13.42;39.99;101392.16;5008795;28;20026;-66
2023/05/12 04:07:15;;;;;;;0.45;0.45;;;;;;;13.77;38.92;101393.72;5008730;28;20031;-66
2023/05/12 04:09:42;;;;;;;0.47;0.47;;;;;;;13.65;39.16;101391.19;5008647;28;20478;-68
2023/05/12 04:12:08;;;;;;;0.30;0.30;;;;;;;13.67;39.30;101392.06;5008179;28;20510;-72
2023/05/12 04:14:34;;;;;;;0.30;0.30;;;;;;;13.82;39.02;101388.47;5008536;28;20101;-68
2023/05/12 04:16:59;;;;;;;0.45;0.45;;;;;;;13.97;39.35;101390.16;5008318;28;20033;-67
2023/05/12 04:19:24;;;;;;;0.40;0.40;;;;;;;14.30;38.81;101385.53;5008488;28;20535;-67
2023/05/12 04:21:50;;;;;;;0.30;0.30;;;;;;;14.63;37.74;101395.72;5008344;28;20072;-67
2023/05/12 04:24:15;;;;;;;0.30;0.30;;;;;;;14.69;38.18;101397.41;5008041;28;20033;-69
2023/05/12 04:26:41;;;;;;;0.30;0.30;;;;;;;14.92;37.73;101397.19;5008470;28;20032;-68
2023/05/12 04:29:06;;;;;;;0.30;0.30;;;;;;;15.03;37.72;101394.44;5008228;28;20049;-67
2023/05/12 04:31:32;;;;;;;0.30;0.30;;;;;;;15.40;36.49;101401.00;5008074;28;20033;-67
2023/05/12 04:33:57;;;;;;;0.30;0.30;;;;;;;15.39;36.37;101396.66;5008343;28;20471;-67
2023/05/12 04:36:22;;;;;;;0.30;0.30;;;;;;;15.49;35.95;101407.88;5007944;28;20041;-67
2023/05/12 04:38:48;;;;;;;0.30;0.30;;;;;;;15.42;36.34;101401.84;5008089;28;20062;-68
2023/05/12 04:41:13;;;;;;;2.15;1.95;;;;;;;15.54;35.81;101398.22;5007921;28;20030;-68
2023/05/12 04:43:38;;;;;;;0.30;0.30;;;;;;;15.53;35.96;101395.63;5007654;28;20026;-67
2023/05/12 04:46:04;;;;;;;0.38;0.38;;;;;;;15.64;35.43;101406.78;5007713;28;20121;-67
2023/05/12 04:48:29;;;;;;;0.65;0.65;;;;;;;15.58;35.91;101399.03;4990537;28;20030;-68
2023/05/12 04:50:58;;;;;;;0.50;0.50;;;;;;;15.94;35.33;101401.16;5008029;28;20033;-67
2023/05/12 04:53:23;;;;;;;0.40;0.40;;;;;;;16.01;35.43;101405.44;5007984;28;20026;-67
2023/05/12 04:55:50;;;;;;;0.30;0.30;;;;;;;16.17;34.50;101406.06;4990243;28;20022;-68
2023/05/12 04:58:15;;;;;;;0.20;0.20;;;;;;;16.15;34.65;101405.22;5007405;28;20046;-69
2023/05/12 05:00:41;;;;;;;0.60;0.60;;;;;;;16.29;33.96;101401.50;5007659;28;20025;-67
2023/05/12 05:03:06;;;;;;;0.30;0.30;;;;;;;16.28;33.90;101402.41;5007578;28;20391;-67
2023/05/12 05:05:32;;;;;;;0.88;0.88;;;;;;;16.08;34.73;101408.81;5007296;28;20054;-66
2023/05/12 05:07:57;;;;;;;1.13;1.02;;;;;;;16.42;33.98;101405.63;5007464;28;20292;-65
2023/05/12 05:10:22;;;;;;;0.30;0.30;;;;;;;16.30;34.25;101406.72;5007566;28;20045;-67
2023/05/12 05:12:48;;;;;;;0.50;0.50;;;;;;;16.36;34.46;101411.00;4990172;28;20026;-66
2023/05/12 05:15:13;;;;;;;0.50;0.50;;;;;;;16.87;33.38;101408.38;4990151;28;20232;-65
2023/05/12 05:17:39;;;;;;;0.82;0.82;;;;;;;16.78;33.26;101407.66;5007651;28;20042;-66
2023/05/12 05:20:06;;;;;;;0.43;0.43;;;;;;;16.91;33.79;101402.19;4989957;28;20069;-65
2023/05/12 05:22:31;;;;;;;0.95;0.95;;;;;;;17.40;32.22;101415.22;5007351;28;20023;-65
2023/05/12 05:24:57;;;;;;;0.20;0.20;;;;;;;17.26;32.85;101411.16;5007445;28;20053;-64
2023/05/12 05:27:22;;;;;;;0.40;0.40;;;;;;;17.53;32.91;101416.72;5007496;28;20053;-65
2023/05/12 05:29:48;;;;;;;0.30;0.30;;;;;;;18.11;31.92;101412.78;4989808;28;20026;-65
2023/05/12 05:32:14;;;;;;;0.22;0.22;;;;;;;18.30;30.59;101423.75;5007243;28;20023;-65
2023/05/12 05:34:39;;;;;;;0.30;0.30;;;;;;;17.91;31.00;101422.00;5006935;28;20022;-65
2023/05/12 05:37:05;;;;;;;1.05;1.05;;;;;;;17.93;31.35;101425.47;4989545;28;20042;-65
2023/05/12 05:39:30;;;;;;;0.30;0.30;;;;;;;18.07;31.29;101422.50;5007390;28;20022;-65
2023/05/12 05:41:59;;;;;;;0.93;0.93;;;;;;;18.09;30.79;101419.84;5007135;28;20022;-65
2023/05/12 05:44:24;;;;;;;0.20;0.20;;;;;;;17.95;30.91;101423.69;5007388;28;20126;-65
2023/05/12 05:46:50;;;;;;;0.40;0.40;;;;;;;18.08;31.50;101421.59;5007225;28;20026;-66
2023/05/12 05:49:15;;;;;;;0.20;0.20;;;;;;;18.43;31.71;101428.69;5007225;28;20026;-65
2023/05/12 05:51:41;;;;;;;0.50;0.50;;;;;;;18.78;29.67;101426.94;5007066;28;20433;-65
2023/05/12 05:54:06;;;;;;;0.20;0.20;;;;;;;18.47;30.01;101434.75;5007239;28;20026;-65
2023/05/12 05:56:34;;;;;;;0.30;0.30;;;;;;;18.49;30.52;101440.81;5006735;28;20094;-65
2023/05/12 05:59:01;;;;;;;0.30;0.30;;;;;;;18.59;30.36;101444.97;5006661;28;20050;-66
2023/05/12 06:01:27;;;;;;;0.20;0.20;;;;;;;18.70;30.27;101444.66;5007008;28;20030;-66
2023/05/12 06:03:53;;;;;;;0.40;0.40;;;;;;;19.06;31.14;101434.06;5006812;28;20030;-65
2023/05/12 06:06:18;;;;;;;0.50;0.50;;;;;;;19.55;30.49;101425.66;5006741;28;20029;-66
2023/05/12 06:08:44;;;;;;;0.35;0.35;;;;;;;20.27;28.65;101444.56;5006722;28;20022;-65
2023/05/12 06:11:09;;;;;;;0.20;0.20;;;;;;;20.03;28.03;101444.44;5006600;28;20022;-65
2023/05/12 06:13:35;;;;;;;0.20;0.20;;;;;;;19.86;28.62;101441.44;5006820;28;20457;-65
2023/05/12 06:16:00;;;;;;;0.20;0.20;;;;;;;19.59;28.03;101425.56;5006558;28;20535;-66
2023/05/12 06:18:26;;;;;;;0.20;0.20;;;;;;;19.64;27.64;101436.84;5005878;28;20077;-65
2023/05/12 06:20:52;;;;;;;0.30;0.30;;;;;;;19.34;28.58;101442.09;5006778;28;20030;-65
2023/05/12 06:23:17;;;;;;;0.20;0.20;;;;;;;19.65;28.49;101438.59;5006567;28;20030;-65
2023/05/12 06:25:42;;;;;;;0.52;0.52;;;;;;;20.06;29.27;101452.25;5006479;28;20106;-66
2023/05/12 06:28:08;;;;;;;0.20;0.20;;;;;;;20.49;28.36;101450.91;5006502;28;20022;-66
2023/05/12 06:30:33;;;;;;;0.30;0.30;;;;;;;20.65;26.85;101449.47;5006376;28;20027;-66
2023/05/12 06:32:59;;;;;;;1.00;0.98;;;;;;;20.60;27.57;101447.91;5006378;28;20029;-66
2023/05/12 06:35:25;;;;;;;0.20;0.20;;;;;;;20.89;27.48;101451.31;5006340;28;20030;-66
2023/05/12 06:37:50;;;;;;;0.20;0.20;;;;;;;21.03;27.35;101449.06;5006266;28;20037;-65
2023/05/12 06:40:16;;;;;;;0.20;0.20;;;;;;;21.08;27.15;101445.41;5006023;28;20038;-65
2023/05/12 06:42:42;;;;;;;0.80;0.80;;;;;;;21.33;26.87;101444.47;5006277;28;20022;-65
2023/05/12 06:45:08;;;;;;;0.60;0.60;;;;;;;21.40;26.98;101451.28;5006474;28;20088;-65
2023/05/12 06:47:33;;;;;;;0.20;0.20;;;;;;;21.61;26.61;101448.72;5006324;28;20061;-65
2023/05/12 06:49:59;;;;;;;0.20;0.20;;;;;;;21.75;26.57;101445.56;5006120;28;20022;-65
2023/05/12 06:52:24;;;;;;;0.57;0.57;;;;;;;21.82;26.84;101441.75;5006103;28;20392;-65
2023/05/12 06:54:50;;;;;;;0.20;0.20;;;;;;;22.08;27.10;101446.97;5005945;28;20082;-64
2023/05/12 06:57:15;;;;;;;0.20;0.20;;;;;;;22.45;26.68;101461.28;5005566;28;20050;-65
2023/05/12 06:59:41;;;;;;;0.82;0.77;;;;;;;22.72;25.09;101447.84;5006142;28;20026;-65
2023/05/12 07:02:06;;;;;;;0.20;0.20;;;;;;;22.54;24.34;101454.72;5005862;28;20046;-65
2023/05/12 07:04:32;;;;;;;0.20;0.20;;;;;;;22.24;25.34;101463.91;5006006;28;20045;-66
2023/05/12 07:06:57;;;;;;;0.20;0.20;;;;;;;22.39;25.53;101464.19;5005830;28;20026;-65
2023/05/12 07:09:22;;;;;;;0.20;0.20;;;;;;;22.73;24.50;101457.47;5005860;28;20041;-65
2023/05/12 07:11:48;;;;;;;0.20;0.20;;;;;;;22.94;24.74;101460.13;5005280;28;20419;-65
2023/05/12 07:14:14;;;;;;;0.20;0.20;;;;;;;23.13;24.42;101465.47;5005870;28;20033;-65
2023/05/12 07:16:39;;;;;;;0.50;0.40;;;;;;;23.31;24.07;101457.63;5005597;28;20027;-65
2023/05/12 07:19:07;;;;;;;0.10;0.10;;;;;;;23.51;22.79;101456.72;5005773;28;20034;-65
2023/05/12 07:21:33;;;;;;;0.30;0.30;;;;;;;23.32;22.98;101461.13;5005763;28;20026;-66
2023/05/12 07:23:58;;;;;;;0.10;0.10;;;;;;;23.43;23.87;101461.53;5005656;28;20026;-65
2023/05/12 07:26:24;;;;;;;0.20;0.20;;;;;;;23.94;23.48;101466.22;5005163;28;20022;-64
2023/05/12 07:28:49;;;;;;;0.20;0.20;;;;;;;24.26;23.20;101457.66;5005503;28;20529;-65
2023/05/12 07:31:14;;;;;;;0.40;0.40;;;;;;;24.65;23.10;101458.34;5005733;28;20031;-65
2023/05/12 07:33:40;;;;;;;0.20;0.20;;;;;;;24.90;22.48;101457.13;5005198;28;20045;-65
2023/05/12 07:36:07;;;;;;;0.20;0.20;;;;;;;25.21;22.35;101451.94;5005740;28;20038;-65
2023/05/12 07:38:33;;;;;;;0.75;0.75;;;;;;;25.12;21.65;101453.31;5005617;28;20053;-66
2023/05/12 07:40:59;;;;;;;0.10;0.10;;;;;;;25.15;22.58;101457.59;5005499;28;20030;-65
2023/05/12 07:43:24;;;;;;;0.20;0.20;;;;;;;25.21;21.96;101459.91;5005413;28;20041;-65
2023/05/12 07:45:50;;;;;;;0.10;0.10;;;;;;;25.73;22.36;101461.56;5005498;28;20053;-65
2023/05/12 07:48:15;;;;;;;0.50;0.50;;;;;;;26.31;20.72;101460.09;5005322;28;20113;-65
2023/05/12 07:50:41;;;;;;;0.20;0.20;;;;;;;26.33;20.71;101455.53;5005493;28;20018;-65
2023/05/12 07:53:07;;;;;;;0.10;0.10;;;;;;;26.27;20.59;101462.06;5005374;28;20023;-65
2023/05/12 07:55:32;;;;;;;0.30;0.30;;;;;;;26.38;20.48;101456.13;5004989;28;20026;-65
2023/05/12 07:57:58;;;;;;;0.10;0.10;;;;;;;26.91;21.17;101471.63;5010778;23;20054;-64
2023/05/12 08:00:24;;;;;;;0.10;0.10;;;;;;;27.33;20.11;101458.41;5011923;23;20038;-66
2023/05/12 08:02:49;;;;;;;0.10;0.10;;;;;;;27.68;20.32;101457.16;5005033;28;20127;-66
2023/05/12 08:05:15;;;;;;;0.10;0.10;;;;;;;27.95;19.80;101460.78;5005487;28;20028;-66
2023/05/12 08:07:42;;;;;;;0.10;0.10;;;;;;;27.92;19.52;101453.84;5005309;28;20034;-66
2023/05/12 08:10:09;;;;;;;0.10;0.10;;;;;;;27.75;19.01;101456.75;5003981;28;20029;-67
2023/05/12 08:12:34;;;;;;;0.10;0.10;;;;;;;27.56;19.61;101457.91;5005161;28;20027;-66
2023/05/12 08:15:00;;;;;;;0.25;0.25;;;;;;;27.54;18.83;101454.50;5005214;28;20022;-66
2023/05/12 08:17:25;;;;;;;0.60;0.60;;;;;;;27.57;18.32;101456.97;5005207;28;20030;-66
2023/05/12 08:19:50;;;;;;;0.10;0.10;;;;;;;27.37;18.70;101451.09;5005165;28;20026;-66
2023/05/12 08:22:16;;;;;;;0.10;0.10;;;;;;;27.45;18.34;101448.78;5005001;28;20030;-66
2023/05/12 08:24:42;;;;;;;0.10;0.10;;;;;;;27.37;17.30;101447.53;5005461;28;20034;-67
2023/05/12 08:27:07;;;;;;;0.17;0.15;;;;;;;27.04;16.89;101454.91;5005229;28;20027;-66
2023/05/12 08:29:33;;;;;;;0.10;0.10;;;;;;;26.49;17.07;101463.47;5005343;28;20023;-66
2023/05/12 08:31:59;;;;;;;0.25;0.25;;;;;;;26.05;17.27;101467.78;5004844;28;20027;-67
2023/05/12 08:34:24;;;;;;;1.48;1.42;;;;;;;25.96;17.37;101455.88;5005142;28;20023;-66
2023/05/12 08:36:53;;;;;;;0.10;0.10;;;;;;;25.74;18.04;101455.28;5004812;28;20021;-66
2023/05/12 08:39:19;;;;;;;0.10;0.10;;;;;;;26.15;18.53;101455.63;5004937;28;20034;-67
2023/05/12 08:42:01;;;;;;;0.10;0.10;;;;;;;26.55;17.64;101452.44;5006842;28;20387;-65
2023/05/12 08:44:27;;;;;;;0.30;0.30;;;;;;;26.32;18.13;101456.50;5008722;28;20458;-65
2023/05/12 08:46:57;;;;;;;0.55;0.55;;;;;;;26.23;17.52;101450.72;5008438;28;20027;-65
2023/05/12 08:49:24;;;;;;;0.20;0.20;;;;;;;26.22;17.42;101443.69;5008358;28;20026;-66
2023/05/12 08:51:52;;;;;;;0.40;0.40;;;;;;;26.50;18.13;101453.69;5008306;28;20022;-67
2023/05/12 08:54:20;;;;;;;0.10;0.10;;;;;;;27.42;18.28;101442.78;5008311;28;20031;-65
2023/05/12 08:56:45;;;;;;;0.20;0.20;;;;;;;28.18;16.91;101453.91;5007979;28;20081;-66
2023/05/12 08:59:12;;;;;;;0.10;0.10;;;;;;;28.37;16.37;101463.34;5007913;28;20066;-65
2023/05/12 09:01:41;;;;;;;0.10;0.10;;;;;;;28.14;15.95;101457.75;5008186;28;20497;-65
2023/05/12 09:04:07;;;;;;;0.10;0.10;;;;;;;27.58;15.21;101456.00;5007915;28;20034;-65
2023/05/12 09:06:33;;;;;;;0.13;0.13;;;;;;;26.66;15.63;101454.47;5015161;23;20054;-63
2023/05/12 09:08:58;;;;;;;0.17;0.17;;;;;;;26.20;16.76;101458.91;5008125;28;20030;-63
2023/05/12 09:11:24;;;;;;;0.10;0.10;;;;;;;26.51;17.22;101463.38;5007844;28;20078;-64
2023/05/12 09:13:59;;;;;;;1.05;0.95;;;;;;;26.97;16.54;101457.06;5006709;28;20022;-64
2023/05/12 09:16:33;;;;;;;0.15;0.15;;;;;;;27.12;16.36;101454.44;5008117;28;20493;-63
2023/05/12 09:19:00;;;;;;;0.88;0.88;;;;;;;27.24;15.88;101453.66;5008025;28;20433;-63
2023/05/12 09:21:27;;;;;;;0.32;0.32;;;;;;;27.11;15.82;101464.22;5007562;28;20484;-63
2023/05/12 09:24:07;;;;;;;0.20;0.20;;;;;;;27.04;15.80;101463.78;5007707;28;20041;-62
2023/05/12 09:26:52;;;;;;;0.20;0.20;;;;;;;26.89;15.49;101460.22;5006372;28;20050;-62
2023/05/12 09:29:18;;;;;;;0.10;0.10;;;;;;;26.46;16.00;101464.53;5007827;28;20027;-63
2023/05/12 09:31:57;;;;;;;0.20;0.20;;;;;;;26.62;16.58;101466.25;5007766;28;20532;-63
2023/05/12 09:39:16;;;;;;;0.10;0.10;;;;;;;28.15;16.51;101448.75;5013385;23;20132;-65
2023/05/12 09:41:42;;;;;;;0.10;0.10;;;;;;;28.16;15.77;101444.28;5013780;23;20066;-66
2023/05/12 09:44:09;;;;;;;0.32;0.32;;;;;;;27.89;16.05;101443.38;5015680;23;20497;-64
2023/05/12 09:46:37;;;;;;;0.10;0.10;;;;;;;27.63;15.92;101451.22;5014200;23;20106;-66
2023/05/12 09:49:02;;;;;;;0.10;0.10;;;;;;;27.31;16.17;101456.81;4989806;28;20023;-66
2023/05/12 09:51:29;;;;;;;0.20;0.20;;;;;;;27.14;16.65;101449.88;5014254;23;20058;-65
2023/05/12 09:53:55;;;;;;;0.10;0.10;;;;;;;27.68;15.97;101449.16;5012315;23;20499;-66
2023/05/12 09:56:21;;;;;;;0.20;0.20;;;;;;;27.87;15.59;101434.59;5005427;28;20030;-66
2023/05/12 09:58:48;;;;;;;0.15;0.15;;;;;;;27.75;15.58;101446.09;5003086;23;20058;-64
2023/05/12 10:01:18;;;;;;;0.10;0.10;;;;;;;27.41;15.18;101457.94;4986552;28;20038;-63
2023/05/12 10:03:49;;;;;;;0.52;0.52;;;;;;;27.01;15.74;101453.31;4987602;28;20045;-63
2023/05/12 10:06:20;;;;;;;0.40;0.40;;;;;;;26.95;15.86;101449.16;4996691;23;20033;-66
2023/05/12 10:08:54;;;;;;;0.40;0.40;;;;;;;27.12;16.33;101451.78;5006842;28;20023;-66
2023/05/12 10:11:21;;;;;;;0.40;0.40;;;;;;;27.42;15.86;101440.13;5006682;28;20044;-66
2023/05/12 10:13:47;;;;;;;0.10;0.10;;;;;;;27.32;15.79;101434.50;5006835;28;20030;-66
2023/05/12 10:16:14;;;;;;;0.10;0.10;;;;;;;27.60;15.06;101443.44;5006775;28;20435;-67
2023/05/12 10:18:43;;;;;;;0.60;0.60;;;;;;;27.25;15.89;101442.06;5006827;28;20064;-66
2023/05/12 10:21:10;;;;;;;0.10;0.10;;;;;;;27.64;16.46;101447.59;5006717;28;20057;-66
2023/05/12 10:23:40;;;;;;;0.10;0.10;;;;;;;28.48;15.04;101437.75;5006478;28;20033;-66
2023/05/12 10:26:06;;;;;;;0.32;0.32;;;;;;;28.09;15.34;101435.81;5006876;28;20042;-66
2023/05/12 10:28:32;;;;;;;0.10;0.10;;;;;;;27.54;15.63;101438.50;5006703;28;20046;-67
2023/05/12 10:30:58;;;;;;;2.33;0.57;;;;;;;27.07;16.39;101438.75;5013719;23;20138;-62
2023/05/12 10:33:25;;;;;;;0.10;0.10;;;;;;;27.09;16.36;101423.53;5008219;23;20427;-65
2023/05/12 10:35:51;;;;;;;0.47;0.47;;;;;;;27.42;16.07;101429.47;5015597;23;20145;-63
2023/05/12 10:38:20;;;;;;;1.20;1.10;;;;;;;27.15;16.11;101415.13;5013111;23;20041;-65
2023/05/12 10:40:58;;;;;;;0.10;0.10;;;;;;;27.05;16.22;101438.84;5013414;23;20029;-63
2023/05/12 10:43:25;;;;;;;0.13;0.13;;;;;;;27.34;16.86;101422.81;5006228;28;20030;-64
2023/05/12 10:46:24;;;;;;;0.10;0.10;;;;;;;27.62;16.00;101422.81;5033804;23;20474;-63
2023/05/12 10:48:58;;;;;;;0.85;0.80;;;;;;;27.80;16.40;101428.81;5019563;23;20050;-63
2023/05/12 10:51:29;;;;;;;0.10;0.10;;;;;;;27.96;16.34;101417.97;5013012;23;20046;-66
2023/05/12 10:53:59;;;;;;;0.10;0.10;;;;;;;27.96;15.13;101425.13;4988544;28;20027;-65
2023/05/12 10:56:28;;;;;;;0.10;0.10;;;;;;;27.27;16.04;101415.31;5005826;28;20041;-65
2023/05/12 10:59:12;;;;;;;0.57;0.57;;;;;;;26.84;16.75;101425.00;5006162;28;20030;-65
2023/05/12 11:01:41;;;;;;;0.10;0.10;;;;;;;26.82;16.65;101429.59;5006184;28;20053;-64
2023/05/12 11:04:12;;;;;;;0.20;0.20;;;;;;;25.89;16.71;101420.78;5005571;28;20037;-65
2023/05/12 11:06:38;;;;;;;5.20;1.02;;;;;;;24.85;17.85;101425.47;5006083;28;20065;-66
2023/05/12 11:09:04;;;;;;;0.70;0.70;;;;;;;24.19;18.99;101435.00;5005876;28;20026;-65
2023/05/12 11:11:29;;;;;;;0.10;0.10;;;;;;;23.97;19.89;101431.59;5011239;23;20065;-66
2023/05/12 11:13:55;;;;;;;0.38;0.38;;;;;;;23.62;20.39;101421.78;5006289;28;20093;-65
2023/05/12 11:16:20;;;;;;;0.20;0.20;;;;;;;23.52;19.79;101420.47;5005786;28;20030;-65
2023/05/12 11:18:46;;;;;;;0.10;0.10;;;;;;;23.49;19.09;101436.53;5005815;28;20122;-66
2023/05/12 11:21:11;;;;;;;0.20;0.20;;;;;;;23.08;19.12;101437.47;5005708;28;20053;-66
2023/05/12 11:23:37;;;;;;;0.10;0.10;;;;;;;22.70;19.57;101433.81;5012174;23;20137;-66
2023/05/12 11:26:04;;;;;;;0.52;0.50;;;;;;;22.59;20.00;101436.91;5005454;28;20018;-65